Venetian Village, Illinois
Current Conditions -  °F | °C
As of 7:11 PM on Monday 24 Nov 2014 (Local Time) from KUGN Reporting Station
Unknown Precip Unknown Precip  
Wind Chill: 14°   Ceiling: 1200
Heat Index: 25°   Visibility: 10mi
Dew Point: 22°   Wind: 12mph
Humidity: 88%   Direction: 230°SW
Pressure: 29.63"   Gusts: 29mph
Location:  42.4132°N, 88.0615°W
Report Text: KUGN 250111Z 23010G25KT 10SM UP OVC012 M04/M06 A2963 RMK AO2 UPB0059SNE0059 P0000 T10391056
Loading
Personal Weather Stations






























Interactive Weather Map New forecast layout! Learn more

10-Day Weather Forecast

Advertisements
Track Severe Weather on mobile